createdAt,value
2023-01-17T00:00:14.830Z,30.00
2023-01-17T00:00:37.676Z,29.73
2023-01-17T00:01:06.105Z,29.85
2023-01-17T00:01:34.317Z,29.88
2023-01-17T00:01:57.196Z,30.27
2023-01-17T00:02:20.056Z,30.75
2023-01-17T00:02:43.054Z,30.13
2023-01-17T00:03:06.424Z,30.45
2023-01-17T00:03:29.190Z,31.40
2023-01-17T00:04:10.859Z,31.67
2023-01-17T00:04:52.286Z,31.95
2023-01-17T00:05:35.244Z,30.08
2023-01-17T00:06:16.805Z,32.65
2023-01-17T00:06:58.409Z,30.25
2023-01-17T00:07:40.670Z,31.80
2023-01-17T00:08:22.125Z,31.38
2023-01-17T00:09:03.732Z,31.98
2023-01-17T00:09:44.827Z,30.98
2023-01-17T00:10:10.544Z,32.22
2023-01-17T00:10:33.412Z,31.05
2023-01-17T00:10:58.295Z,32.25
2023-01-17T00:11:21.121Z,31.33
2023-01-17T00:11:43.883Z,31.13
2023-01-17T00:12:07.444Z,30.70
2023-01-17T00:12:31.048Z,32.08
2023-01-17T00:12:54.735Z,31.92
2023-01-17T00:13:17.639Z,33.05
2023-01-17T00:13:41.003Z,32.78
2023-01-17T00:14:03.759Z,31.55
2023-01-17T00:14:28.904Z,31.50
2023-01-17T00:14:52.770Z,31.30
2023-01-17T00:15:20.031Z,32.33
2023-01-17T00:15:42.981Z,32.50
2023-01-17T00:16:06.974Z,34.50
2023-01-17T00:16:29.747Z,34.63
2023-01-17T00:16:53.287Z,32.92
2023-01-17T00:17:16.002Z,32.67
2023-01-17T00:17:41.135Z,31.98
2023-01-17T00:18:04.004Z,32.33
2023-01-17T00:18:26.728Z,31.58
2023-01-17T00:19:09.449Z,32.50
2023-01-17T00:19:50.825Z,31.58
2023-01-17T00:20:33.770Z,31.48
2023-01-17T00:21:15.395Z,30.95
2023-01-17T00:21:53.775Z,30.83
2023-01-17T00:22:39.791Z,32.60
2023-01-17T00:23:25.692Z,31.38
2023-01-17T00:24:07.088Z,30.38
2023-01-17T00:24:50.250Z,29.90
2023-01-17T00:25:36.607Z,29.88
2023-01-17T00:26:05.397Z,28.92
2023-01-17T00:26:28.242Z,30.05
2023-01-17T00:27:09.942Z,28.67
2023-01-17T00:27:32.728Z,30.63
2023-01-17T00:27:55.397Z,28.67
2023-01-17T00:28:18.098Z,29.95
2023-01-17T00:28:41.538Z,30.73
2023-01-17T00:29:04.189Z,31.00
2023-01-17T00:29:26.936Z,29.45
2023-01-17T00:29:49.618Z,29.10
2023-01-17T00:30:13.288Z,28.45
2023-01-17T00:30:36.010Z,28.58
2023-01-17T00:30:58.761Z,28.10
2023-01-17T00:31:21.542Z,28.13
2023-01-17T00:31:44.350Z,27.65
2023-01-17T00:32:07.112Z,27.27
2023-01-17T00:32:29.889Z,27.98
2023-01-17T00:32:52.597Z,27.73
2023-01-17T00:33:15.327Z,26.60
2023-01-17T00:33:38.091Z,27.58
2023-01-17T00:34:00.820Z,27.02
2023-01-17T00:34:23.364Z,27.77
2023-01-17T00:34:46.087Z,28.08
2023-01-17T00:35:09.540Z,28.55
2023-01-17T00:35:33.618Z,30.00
2023-01-17T00:35:56.976Z,29.00
2023-01-17T00:36:19.683Z,28.75
2023-01-17T00:36:42.372Z,29.58
2023-01-17T00:37:05.114Z,28.73
2023-01-17T00:37:27.920Z,29.33
2023-01-17T00:37:58.832Z,28.80
2023-01-17T00:38:22.237Z,29.25
2023-01-17T00:38:44.976Z,29.17
2023-01-17T00:39:07.630Z,30.15
2023-01-17T00:39:30.335Z,28.77
2023-01-17T00:39:53.075Z,32.10
2023-01-17T00:40:16.055Z,31.50
2023-01-17T00:40:39.935Z,31.35
2023-01-17T00:41:02.893Z,31.83
2023-01-17T00:41:25.858Z,32.25
2023-01-17T00:41:48.579Z,31.08
2023-01-17T00:42:11.282Z,34.60
2023-01-17T00:42:34.072Z,33.85
2023-01-17T00:43:15.504Z,35.20
2023-01-17T00:43:56.989Z,31.98
2023-01-17T00:44:38.490Z,33.33
2023-01-17T00:45:20.124Z,32.75
2023-01-17T00:46:02.724Z,32.22
2023-01-17T00:46:44.390Z,35.35
2023-01-17T00:47:25.946Z,34.55
2023-01-17T00:48:07.104Z,33.70
2023-01-17T00:48:48.428Z,32.08
2023-01-17T00:49:29.981Z,32.10
2023-01-17T00:50:11.300Z,31.33
2023-01-17T00:50:55.506Z,32.88
2023-01-17T00:51:37.131Z,34.58
2023-01-17T00:52:18.474Z,32.35
2023-01-17T00:53:00.004Z,32.47
2023-01-17T00:53:42.104Z,31.15
2023-01-17T00:54:24.806Z,32.85
2023-01-17T00:55:06.476Z,33.13
2023-01-17T00:55:48.004Z,33.38
2023-01-17T00:56:29.625Z,32.85
2023-01-17T00:57:11.265Z,34.45
2023-01-17T00:57:52.877Z,34.17
2023-01-17T00:58:34.340Z,32.90
2023-01-17T00:59:15.829Z,32.80
2023-01-17T00:59:57.324Z,33.70
2023-01-17T01:00:38.980Z,33.42
2023-01-17T01:01:24.112Z,33.65
2023-01-17T01:02:06.112Z,31.95
2023-01-17T01:02:48.039Z,32.40
2023-01-17T01:03:30.590Z,31.45
2023-01-17T01:04:12.009Z,31.75
2023-01-17T01:04:53.297Z,32.78
2023-01-17T01:05:34.972Z,31.27
2023-01-17T01:06:18.038Z,31.45
2023-01-17T01:06:59.695Z,33.20
2023-01-17T01:07:41.293Z,31.02
2023-01-17T01:08:22.977Z,31.50
2023-01-17T01:09:04.820Z,31.77
2023-01-17T01:09:45.929Z,28.63
2023-01-17T01:10:29.035Z,30.73
2023-01-17T01:11:10.478Z,29.83
2023-01-17T01:11:51.862Z,28.30
2023-01-17T01:12:33.209Z,29.15
2023-01-17T01:13:14.875Z,28.15
2023-01-17T01:13:56.194Z,30.15
2023-01-17T01:14:37.968Z,29.33
2023-01-17T01:15:19.524Z,28.65
2023-01-17T01:16:01.098Z,30.40
2023-01-17T01:16:42.897Z,27.98
2023-01-17T01:17:26.909Z,30.50
2023-01-17T01:18:08.508Z,28.48
2023-01-17T01:18:50.055Z,27.42
2023-01-17T01:19:31.534Z,28.02
2023-01-17T01:20:12.789Z,29.63
2023-01-17T01:20:53.929Z,26.13
2023-01-17T01:21:36.611Z,26.83
2023-01-17T01:22:18.246Z,27.45
2023-01-17T01:22:59.558Z,26.38
2023-01-17T01:23:41.318Z,27.35
2023-01-17T01:24:22.988Z,26.85
2023-01-17T01:25:04.485Z,26.77
2023-01-17T01:25:46.208Z,26.23
2023-01-17T01:26:27.684Z,26.80
2023-01-17T01:27:09.290Z,26.75
2023-01-17T01:27:51.045Z,25.83
2023-01-17T01:28:33.702Z,26.75
2023-01-17T01:29:15.374Z,25.40
2023-01-17T01:29:56.602Z,26.08
2023-01-17T01:30:37.731Z,25.75
2023-01-17T01:31:19.381Z,25.33
2023-01-17T01:32:01.064Z,24.50
2023-01-17T01:32:42.494Z,27.27
2023-01-17T01:33:21.311Z,26.52
2023-01-17T01:33:44.185Z,26.20
2023-01-17T01:34:06.906Z,26.35
2023-01-17T01:34:29.659Z,25.08
2023-01-17T01:34:52.433Z,26.52
2023-01-17T01:35:15.457Z,27.48
2023-01-17T01:35:38.170Z,25.58
2023-01-17T01:36:00.979Z,26.75
2023-01-17T01:36:25.185Z,26.70
2023-01-17T01:36:47.920Z,26.25
2023-01-17T01:37:10.674Z,26.13
2023-01-17T01:37:33.374Z,25.80
2023-01-17T01:37:56.270Z,25.55
2023-01-17T01:38:19.045Z,25.55
2023-01-17T01:38:41.759Z,24.63
2023-01-17T01:39:04.542Z,25.25
2023-01-17T01:39:27.394Z,27.70
2023-01-17T01:39:50.159Z,25.60
2023-01-17T01:40:13.395Z,25.95
2023-01-17T01:40:41.274Z,26.25
2023-01-17T01:41:04.159Z,25.55
2023-01-17T01:41:26.967Z,25.35
2023-01-17T01:41:49.673Z,26.23
2023-01-17T01:42:15.564Z,24.55
2023-01-17T01:42:38.380Z,25.45
2023-01-17T01:43:05.794Z,24.95
2023-01-17T01:43:43.481Z,26.17
2023-01-17T01:44:21.049Z,27.75
2023-01-17T01:44:46.485Z,28.08
2023-01-17T01:45:16.034Z,25.90
2023-01-17T01:45:38.828Z,27.10
2023-01-17T01:46:01.695Z,27.73
2023-01-17T01:46:25.676Z,27.30
2023-01-17T01:46:48.491Z,27.42
2023-01-17T01:47:12.499Z,27.65
2023-01-17T01:47:36.184Z,26.30
2023-01-17T01:48:02.379Z,26.73
2023-01-17T01:48:34.842Z,27.17
2023-01-17T01:48:59.215Z,26.83
2023-01-17T01:49:24.828Z,27.67
2023-01-17T01:49:48.664Z,27.75
2023-01-17T01:50:11.950Z,27.70
2023-01-17T01:50:35.241Z,29.45
2023-01-17T01:50:58.789Z,29.27
2023-01-17T01:51:25.342Z,29.05
2023-01-17T01:51:49.848Z,31.10
2023-01-17T01:52:12.667Z,29.70
2023-01-17T01:52:36.029Z,32.65
2023-01-17T01:53:00.492Z,31.08
2023-01-17T01:53:23.269Z,32.30
2023-01-17T01:53:47.015Z,31.85
2023-01-17T01:54:12.505Z,31.10
2023-01-17T01:54:37.528Z,32.67
2023-01-17T01:55:01.397Z,33.20
2023-01-17T01:55:25.914Z,33.40
2023-01-17T01:55:49.512Z,34.88
2023-01-17T01:56:13.874Z,35.83
2023-01-17T01:56:36.657Z,35.25
2023-01-17T01:56:59.640Z,35.08
2023-01-17T01:57:24.567Z,36.13
2023-01-17T01:57:49.137Z,37.65
2023-01-17T01:58:13.775Z,36.58
2023-01-17T01:58:38.269Z,35.88
2023-01-17T01:59:01.555Z,35.45
2023-01-17T01:59:24.325Z,34.00
2023-01-17T01:59:49.635Z,36.30
2023-01-17T02:00:16.830Z,36.75
2023-01-17T02:00:41.113Z,36.00
2023-01-17T02:01:04.539Z,36.42
2023-01-17T02:01:27.499Z,35.05
2023-01-17T02:01:51.525Z,35.15
2023-01-17T02:02:14.332Z,34.15
2023-01-17T02:02:36.989Z,35.47
2023-01-17T02:03:02.576Z,36.53
2023-01-17T02:03:27.440Z,34.25
2023-01-17T02:03:50.295Z,34.90
2023-01-17T02:04:13.445Z,35.78
2023-01-17T02:04:36.185Z,34.25
2023-01-17T02:04:59.065Z,35.38
2023-01-17T02:05:25.306Z,32.60
2023-01-17T02:05:48.086Z,33.35
2023-01-17T02:06:19.577Z,34.22
2023-01-17T02:06:45.464Z,35.40
2023-01-17T02:07:10.524Z,35.92
2023-01-17T02:07:34.727Z,33.70
2023-01-17T02:07:59.773Z,33.15
2023-01-17T02:08:23.334Z,32.95
2023-01-17T02:08:46.090Z,34.05
2023-01-17T02:09:10.088Z,32.58
2023-01-17T02:09:32.816Z,33.17
2023-01-17T02:09:55.649Z,32.67
2023-01-17T02:10:18.535Z,33.00
2023-01-17T02:10:41.902Z,34.53
2023-01-17T02:11:04.809Z,32.25
2023-01-17T02:11:27.850Z,33.38
2023-01-17T02:11:50.665Z,31.27
2023-01-17T02:12:13.359Z,31.90
2023-01-17T02:12:36.129Z,33.22
2023-01-17T02:12:58.894Z,32.03
2023-01-17T02:13:24.164Z,30.95
2023-01-17T02:13:46.958Z,30.48
2023-01-17T02:14:14.395Z,33.65
2023-01-17T02:14:37.110Z,31.98
2023-01-17T02:14:59.944Z,31.85
2023-01-17T02:15:23.903Z,30.02
2023-01-17T02:15:52.702Z,29.63
2023-01-17T02:16:23.416Z,30.80
2023-01-17T02:16:52.823Z,29.75
2023-01-17T02:17:27.829Z,30.52
2023-01-17T02:17:53.728Z,30.30
2023-01-17T02:18:20.298Z,31.05
2023-01-17T02:18:48.803Z,30.95
2023-01-17T02:19:37.444Z,30.38
2023-01-17T02:20:41.606Z,30.17
2023-01-17T02:21:20.344Z,28.70
2023-01-17T02:21:45.289Z,29.85
2023-01-17T02:22:29.179Z,28.80
2023-01-17T02:23:14.652Z,28.38
2023-01-17T02:24:10.761Z,29.60
2023-01-17T02:24:59.265Z,28.70
2023-01-17T02:25:51.903Z,29.48
2023-01-17T02:26:44.986Z,30.75
2023-01-17T02:27:08.566Z,32.20
2023-01-17T02:27:35.931Z,31.80
2023-01-17T02:28:08.651Z,31.88
2023-01-17T02:28:39.826Z,31.65
2023-01-17T02:29:25.297Z,29.85
2023-01-17T02:30:17.659Z,31.40
2023-01-17T02:30:42.946Z,31.30
2023-01-17T02:31:07.011Z,31.55
2023-01-17T02:31:32.600Z,31.35
2023-01-17T02:31:56.897Z,31.75
2023-01-17T02:32:23.204Z,31.50
2023-01-17T02:32:50.995Z,30.17
2023-01-17T02:33:18.249Z,30.67
2023-01-17T02:33:44.791Z,30.35
2023-01-17T02:34:10.255Z,28.42
2023-01-17T02:34:35.012Z,28.23
2023-01-17T02:35:00.509Z,29.13
2023-01-17T02:35:29.055Z,29.25
2023-01-17T02:35:57.129Z,28.98
2023-01-17T02:36:22.823Z,27.45
2023-01-17T02:36:48.748Z,28.52
2023-01-17T02:37:14.933Z,27.02
2023-01-17T02:37:41.127Z,27.63
2023-01-17T02:38:09.307Z,27.60
2023-01-17T02:38:37.433Z,28.15
2023-01-17T02:39:02.683Z,28.65
2023-01-17T02:39:27.864Z,27.45
2023-01-17T02:39:54.486Z,28.52
2023-01-17T02:40:19.629Z,29.17
2023-01-17T02:40:44.904Z,29.95
2023-01-17T02:41:09.299Z,29.00
2023-01-17T02:41:35.076Z,29.40
2023-01-17T02:42:00.332Z,29.95
2023-01-17T02:42:26.759Z,29.52
2023-01-17T02:42:52.655Z,29.50
2023-01-17T02:43:16.596Z,29.10
2023-01-17T02:43:39.622Z,29.13
2023-01-17T02:44:02.488Z,30.65
2023-01-17T02:44:25.366Z,29.05
2023-01-17T02:44:48.529Z,29.35
2023-01-17T02:45:15.620Z,29.40
2023-01-17T02:45:38.388Z,29.58
2023-01-17T02:46:02.782Z,31.30
2023-01-17T02:46:25.618Z,28.45
2023-01-17T02:46:49.290Z,27.80
2023-01-17T02:47:22.099Z,30.23
2023-01-17T02:47:44.985Z,28.55
2023-01-17T02:48:08.288Z,28.77
2023-01-17T02:48:32.841Z,28.85
2023-01-17T02:48:55.652Z,27.23
2023-01-17T02:49:18.589Z,28.25
2023-01-17T02:49:41.319Z,28.85
2023-01-17T02:50:06.421Z,29.88
2023-01-17T02:50:33.024Z,29.25
2023-01-17T02:51:31.380Z,27.85
2023-01-17T02:52:07.751Z,29.02
2023-01-17T02:52:42.299Z,28.00
2023-01-17T02:53:17.629Z,29.45
2023-01-17T02:53:47.894Z,28.52
2023-01-17T02:54:32.975Z,29.95
2023-01-17T02:55:07.015Z,27.83
2023-01-17T02:55:37.368Z,27.63
2023-01-17T02:56:03.290Z,27.52
2023-01-17T02:56:39.527Z,28.55
2023-01-17T02:57:12.046Z,28.67
2023-01-17T02:57:57.122Z,28.15
2023-01-17T02:58:37.455Z,28.73
2023-01-17T02:59:07.013Z,29.88
2023-01-17T02:59:36.070Z,27.85
2023-01-17T03:00:01.537Z,27.60
2023-01-17T03:00:28.064Z,27.63
2023-01-17T03:00:56.583Z,27.30
2023-01-17T03:01:27.436Z,25.05
2023-01-17T03:01:57.325Z,25.60
2023-01-17T03:02:23.421Z,26.27
2023-01-17T03:02:50.610Z,26.50
2023-01-17T03:03:18.209Z,25.88
2023-01-17T03:03:44.389Z,25.27
2023-01-17T03:04:09.020Z,27.20
2023-01-17T03:04:34.591Z,27.95
2023-01-17T03:05:00.871Z,27.50
2023-01-17T03:05:26.194Z,26.27
2023-01-17T03:05:50.404Z,26.83
2023-01-17T03:06:14.573Z,27.20
2023-01-17T03:06:40.199Z,27.42
2023-01-17T03:07:05.363Z,26.80
2023-01-17T03:07:28.324Z,27.17
2023-01-17T03:07:51.184Z,27.13
2023-01-17T03:08:14.010Z,26.63
2023-01-17T03:08:36.837Z,26.90
2023-01-17T03:08:59.637Z,27.35
2023-01-17T03:09:22.470Z,27.77
2023-01-17T03:09:46.003Z,26.80
2023-01-17T03:10:10.393Z,27.20
2023-01-17T03:10:33.293Z,27.85
2023-01-17T03:10:57.120Z,26.50
2023-01-17T03:11:19.916Z,26.15
2023-01-17T03:11:42.799Z,27.48
2023-01-17T03:12:06.314Z,27.90
2023-01-17T03:12:30.474Z,26.30
2023-01-17T03:12:56.971Z,27.05
2023-01-17T03:13:19.770Z,28.20
2023-01-17T03:13:42.592Z,27.42
2023-01-17T03:14:05.336Z,27.10
2023-01-17T03:14:31.185Z,28.33
2023-01-17T03:14:53.934Z,28.83
2023-01-17T03:15:20.194Z,30.67
2023-01-17T03:15:42.887Z,29.15
2023-01-17T03:16:06.809Z,27.63
2023-01-17T03:16:32.828Z,31.08
2023-01-17T03:16:55.633Z,30.77
2023-01-17T03:17:18.451Z,29.60
2023-01-17T03:17:42.846Z,29.27
2023-01-17T03:18:07.684Z,30.40
2023-01-17T03:18:30.475Z,30.33
2023-01-17T03:18:54.290Z,29.80
2023-01-17T03:19:17.009Z,30.48
2023-01-17T03:19:39.763Z,30.92
2023-01-17T03:20:02.613Z,30.73
2023-01-17T03:20:25.447Z,31.75
2023-01-17T03:20:48.306Z,31.42
2023-01-17T03:21:11.087Z,31.27
2023-01-17T03:21:33.810Z,30.77
2023-01-17T03:21:59.697Z,30.05
2023-01-17T03:22:22.577Z,32.28
2023-01-17T03:22:45.355Z,29.85
2023-01-17T03:23:08.100Z,29.92
2023-01-17T03:23:30.805Z,28.60
2023-01-17T03:23:53.595Z,28.85
2023-01-17T03:24:16.494Z,27.88
2023-01-17T03:24:39.272Z,30.05
2023-01-17T03:25:02.005Z,27.13
2023-01-17T03:25:24.737Z,29.17
2023-01-17T03:25:47.494Z,30.40
2023-01-17T03:26:12.617Z,29.88
2023-01-17T03:26:35.410Z,31.63
2023-01-17T03:26:58.096Z,28.75
2023-01-17T03:27:20.813Z,30.05
2023-01-17T03:27:43.569Z,30.35
2023-01-17T03:28:06.555Z,30.45
2023-01-17T03:28:29.383Z,29.88
2023-01-17T03:28:52.156Z,30.77
2023-01-17T03:29:15.045Z,29.33
2023-01-17T03:29:37.824Z,31.75
2023-01-17T03:30:01.965Z,30.70
2023-01-17T03:30:24.839Z,32.10
2023-01-17T03:30:48.211Z,33.17
2023-01-17T03:31:14.467Z,32.80
2023-01-17T03:31:38.664Z,31.20
2023-01-17T03:32:01.359Z,31.75
2023-01-17T03:32:24.306Z,30.65
2023-01-17T03:32:47.189Z,29.33
2023-01-17T03:33:09.951Z,28.17
2023-01-17T03:33:32.639Z,29.48
2023-01-17T03:33:58.241Z,28.98
2023-01-17T03:34:21.009Z,28.13
2023-01-17T03:34:43.770Z,28.13
2023-01-17T03:35:07.722Z,28.30
2023-01-17T03:35:30.539Z,27.67
2023-01-17T03:35:54.677Z,27.30
2023-01-17T03:36:17.515Z,28.70
2023-01-17T03:36:40.298Z,26.55
2023-01-17T03:37:03.146Z,26.05
2023-01-17T03:37:25.933Z,24.42
2023-01-17T03:37:48.644Z,26.05
2023-01-17T03:38:11.417Z,25.77
2023-01-17T03:38:34.189Z,25.60
2023-01-17T03:38:56.958Z,26.30
2023-01-17T03:39:19.777Z,25.30
2023-01-17T03:39:42.563Z,24.92
2023-01-17T03:40:06.794Z,26.17
2023-01-17T03:40:29.548Z,26.15
2023-01-17T03:40:52.358Z,25.73
2023-01-17T03:41:15.077Z,24.90
2023-01-17T03:41:37.887Z,26.05
2023-01-17T03:42:03.368Z,25.42
2023-01-17T03:42:26.090Z,26.00
2023-01-17T03:42:51.454Z,26.45
2023-01-17T03:43:14.188Z,26.02
2023-01-17T03:43:37.012Z,26.23
2023-01-17T03:44:01.148Z,27.20
2023-01-17T03:44:23.873Z,26.08
2023-01-17T03:44:46.652Z,25.88
2023-01-17T03:45:10.888Z,26.25
2023-01-17T03:45:33.659Z,25.70
2023-01-17T03:46:02.525Z,25.77
2023-01-17T03:46:27.762Z,26.05
2023-01-17T03:46:52.099Z,24.52
2023-01-17T03:47:14.889Z,27.60
2023-01-17T03:47:37.615Z,27.15
2023-01-17T03:48:00.354Z,27.08
2023-01-17T03:48:23.113Z,28.20
2023-01-17T03:48:45.863Z,28.35
2023-01-17T03:49:09.344Z,30.67
2023-01-17T03:49:32.085Z,27.67
2023-01-17T03:49:54.863Z,27.73
2023-01-17T03:50:17.776Z,26.70
2023-01-17T03:50:40.586Z,27.38
2023-01-17T03:51:03.471Z,26.70
2023-01-17T03:51:26.261Z,26.65
2023-01-17T03:51:48.944Z,27.02
2023-01-17T03:52:11.703Z,26.48
2023-01-17T03:52:37.034Z,26.95
2023-01-17T03:52:59.856Z,27.50
2023-01-17T03:53:22.720Z,27.33
2023-01-17T03:53:47.104Z,26.13
2023-01-17T03:54:09.960Z,27.88
2023-01-17T03:54:32.779Z,28.17
2023-01-17T03:54:55.649Z,27.20
2023-01-17T03:55:19.529Z,26.13
2023-01-17T03:55:42.252Z,26.42
2023-01-17T03:56:05.583Z,26.30
2023-01-17T03:56:28.391Z,26.83
2023-01-17T03:56:51.179Z,28.83
2023-01-17T03:57:14.015Z,27.10
2023-01-17T03:57:36.820Z,26.05
2023-01-17T03:57:59.527Z,25.77
2023-01-17T03:58:22.330Z,26.15
2023-01-17T03:58:47.209Z,26.02
2023-01-17T03:59:12.239Z,27.15
2023-01-17T03:59:35.865Z,28.30
2023-01-17T03:59:58.696Z,27.10
2023-01-17T04:00:24.251Z,28.45
2023-01-17T04:00:47.107Z,28.98
2023-01-17T04:01:12.221Z,27.27
2023-01-17T04:01:35.041Z,25.02
2023-01-17T04:01:59.345Z,26.38
2023-01-17T04:02:22.340Z,25.75
2023-01-17T04:02:45.226Z,25.70
2023-01-17T04:03:08.007Z,26.92
2023-01-17T04:03:30.722Z,28.63
2023-01-17T04:03:54.108Z,29.73
2023-01-17T04:04:16.885Z,27.35
2023-01-17T04:04:39.584Z,27.02
2023-01-17T04:05:02.227Z,28.55
2023-01-17T04:05:25.053Z,28.63
2023-01-17T04:05:47.882Z,27.77
2023-01-17T04:06:10.543Z,29.25
2023-01-17T04:06:33.432Z,27.80
2023-01-17T04:06:56.163Z,27.63
2023-01-17T04:07:18.951Z,30.20
2023-01-17T04:07:41.931Z,30.67
2023-01-17T04:08:06.894Z,31.00
2023-01-17T04:08:30.885Z,30.63
2023-01-17T04:08:53.574Z,29.80
2023-01-17T04:09:16.394Z,31.27
2023-01-17T04:09:39.248Z,32.90
2023-01-17T04:10:02.050Z,33.33
2023-01-17T04:10:24.801Z,34.42
2023-01-17T04:10:47.541Z,34.28
2023-01-17T04:11:10.305Z,34.35
2023-01-17T04:11:33.049Z,33.28
2023-01-17T04:11:55.757Z,34.60
2023-01-17T04:12:18.553Z,31.70
2023-01-17T04:12:41.864Z,32.45
2023-01-17T04:13:04.669Z,31.95
2023-01-17T04:13:27.536Z,30.63
2023-01-17T04:13:50.250Z,30.92
2023-01-17T04:14:12.964Z,30.00
2023-01-17T04:14:35.719Z,30.17
2023-01-17T04:14:58.433Z,31.35
2023-01-17T04:15:21.452Z,30.98
2023-01-17T04:15:44.358Z,31.00
2023-01-17T04:16:08.579Z,30.15
2023-01-17T04:16:31.650Z,32.10
2023-01-17T04:16:54.535Z,30.75
2023-01-17T04:17:19.535Z,31.52
2023-01-17T04:17:42.307Z,30.95
2023-01-17T04:18:05.339Z,31.27
2023-01-17T04:18:28.040Z,31.15
2023-01-17T04:18:50.754Z,29.67
2023-01-17T04:19:13.446Z,28.23
2023-01-17T04:19:36.964Z,29.05
2023-01-17T04:19:59.654Z,30.05
2023-01-17T04:20:28.324Z,29.48
2023-01-17T04:20:51.703Z,28.35
2023-01-17T04:21:14.424Z,28.38
2023-01-17T04:21:37.143Z,29.20
2023-01-17T04:21:59.830Z,28.23
2023-01-17T04:22:22.675Z,27.15
2023-01-17T04:22:45.511Z,28.30
2023-01-17T04:23:08.324Z,28.40
2023-01-17T04:23:31.071Z,29.38
2023-01-17T04:23:54.477Z,28.55
2023-01-17T04:24:18.140Z,27.73
2023-01-17T04:24:41.069Z,27.08
2023-01-17T04:25:04.139Z,27.45
2023-01-17T04:25:26.999Z,27.08
2023-01-17T04:25:52.139Z,28.77
2023-01-17T04:26:14.931Z,30.02
2023-01-17T04:26:37.631Z,28.80
2023-01-17T04:27:00.387Z,28.73
2023-01-17T04:27:23.244Z,30.05
2023-01-17T04:27:46.089Z,31.80
2023-01-17T04:28:09.023Z,32.65
2023-01-17T04:28:32.279Z,33.35
2023-01-17T04:28:55.224Z,33.42
2023-01-17T04:29:21.174Z,33.95
2023-01-17T04:29:45.940Z,32.47
2023-01-17T04:30:11.866Z,33.72
2023-01-17T04:30:34.747Z,34.88
2023-01-17T04:30:59.254Z,35.67
2023-01-17T04:31:22.105Z,31.23
2023-01-17T04:31:44.847Z,32.75
2023-01-17T04:32:07.585Z,32.58
2023-01-17T04:32:31.863Z,34.97
2023-01-17T04:32:54.637Z,32.97
2023-01-17T04:33:17.365Z,34.47
2023-01-17T04:33:40.213Z,36.47
2023-01-17T04:34:03.490Z,34.50
2023-01-17T04:34:26.239Z,34.47
2023-01-17T04:34:49.052Z,35.28
2023-01-17T04:35:11.900Z,34.05
2023-01-17T04:35:34.819Z,35.28
2023-01-17T04:35:57.625Z,37.35
2023-01-17T04:36:20.371Z,36.13
2023-01-17T04:36:45.356Z,37.17
2023-01-17T04:37:08.175Z,34.67
2023-01-17T04:37:31.049Z,35.22
2023-01-17T04:37:53.925Z,39.10
2023-01-17T04:38:16.738Z,37.50
2023-01-17T04:38:39.645Z,35.17
2023-01-17T04:39:02.474Z,35.95
2023-01-17T04:39:25.314Z,37.38
2023-01-17T04:39:48.070Z,35.50
2023-01-17T04:40:12.340Z,38.25
2023-01-17T04:40:35.108Z,34.45
2023-01-17T04:40:57.938Z,35.38
2023-01-17T04:41:20.678Z,36.75
2023-01-17T04:41:44.239Z,33.75
2023-01-17T04:42:07.067Z,35.85
2023-01-17T04:42:29.848Z,36.58
2023-01-17T04:42:54.408Z,32.97
2023-01-17T04:43:17.146Z,36.10
2023-01-17T04:43:40.130Z,36.63
2023-01-17T04:44:03.129Z,36.78
2023-01-17T04:44:26.054Z,36.33
2023-01-17T04:44:48.981Z,36.97
2023-01-17T04:45:12.454Z,35.95
2023-01-17T04:45:35.217Z,37.17
2023-01-17T04:45:58.342Z,36.97
2023-01-17T04:46:21.261Z,35.63
2023-01-17T04:46:46.428Z,37.83
2023-01-17T04:47:09.246Z,36.75
2023-01-17T04:47:33.613Z,36.20
2023-01-17T04:47:56.350Z,36.83
2023-01-17T04:48:19.284Z,39.15
2023-01-17T04:48:42.154Z,40.13
2023-01-17T04:49:05.196Z,37.10
2023-01-17T04:49:27.985Z,36.05
2023-01-17T04:49:51.224Z,36.25
2023-01-17T04:50:13.951Z,39.05
2023-01-17T04:50:36.789Z,39.72
2023-01-17T04:51:01.047Z,40.28
2023-01-17T04:51:23.720Z,38.25
2023-01-17T04:51:46.503Z,40.88
2023-01-17T04:52:09.293Z,41.28
2023-01-17T04:52:32.275Z,42.92
2023-01-17T04:52:55.034Z,45.67
2023-01-17T04:53:17.864Z,42.63
2023-01-17T04:53:40.649Z,40.45
2023-01-17T04:54:04.653Z,42.58
2023-01-17T04:54:29.820Z,43.97
2023-01-17T04:54:53.299Z,43.58
2023-01-17T04:55:16.194Z,43.50
2023-01-17T04:55:38.956Z,40.78
2023-01-17T04:56:02.407Z,38.83
2023-01-17T04:56:25.130Z,42.30
2023-01-17T04:56:50.260Z,43.75
2023-01-17T04:57:13.135Z,46.40
2023-01-17T04:57:35.919Z,42.40
2023-01-17T04:57:58.656Z,39.38
2023-01-17T04:58:21.382Z,41.15
2023-01-17T04:58:44.694Z,41.70
2023-01-17T04:59:07.575Z,43.17
2023-01-17T04:59:30.308Z,39.45
2023-01-17T04:59:55.724Z,52.28
2023-01-17T05:00:21.274Z,82.13
2023-01-17T05:00:46.637Z,44.58
2023-01-17T05:01:10.042Z,42.58
2023-01-17T05:01:33.018Z,68.90
2023-01-17T05:01:55.807Z,56.30
2023-01-17T05:02:18.600Z,76.40
2023-01-17T05:02:42.901Z,85.80
2023-01-17T05:03:05.764Z,51.30
2023-01-17T05:03:29.774Z,41.53
2023-01-17T05:03:52.575Z,48.50
2023-01-17T05:04:15.354Z,103.43
2023-01-17T05:04:38.264Z,99.80
2023-01-17T05:05:00.974Z,41.13
2023-01-17T05:05:23.756Z,40.38
2023-01-17T05:05:46.514Z,41.00
2023-01-17T05:06:09.312Z,39.00
2023-01-17T05:06:32.029Z,36.42
2023-01-17T05:06:55.105Z,35.40
2023-01-17T05:07:17.945Z,36.22
2023-01-17T05:07:40.728Z,34.33
2023-01-17T05:08:03.691Z,35.70
2023-01-17T05:08:27.531Z,36.50
2023-01-17T05:08:50.273Z,35.15
2023-01-17T05:09:15.284Z,37.57
2023-01-17T05:09:38.125Z,36.42
2023-01-17T05:10:01.103Z,39.60
2023-01-17T05:10:24.144Z,36.33
2023-01-17T05:10:47.216Z,36.55
2023-01-17T05:11:10.262Z,36.53
2023-01-17T05:11:33.013Z,38.63
2023-01-17T05:11:58.523Z,38.63
2023-01-17T05:12:21.307Z,39.85
2023-01-17T05:12:44.148Z,40.33
2023-01-17T05:13:09.902Z,41.70
2023-01-17T05:13:32.703Z,40.13
2023-01-17T05:13:57.575Z,38.90
2023-01-17T05:14:20.342Z,40.53
2023-01-17T05:14:43.185Z,39.13
2023-01-17T05:15:07.701Z,37.47
2023-01-17T05:15:30.529Z,39.47
2023-01-17T05:15:55.755Z,43.53
2023-01-17T05:16:19.748Z,41.72
2023-01-17T05:16:45.293Z,40.72
2023-01-17T05:17:11.356Z,39.53
2023-01-17T05:17:34.186Z,41.08
2023-01-17T05:17:58.528Z,39.72
2023-01-17T05:18:21.369Z,39.58
2023-01-17T05:18:44.190Z,38.58
2023-01-17T05:19:06.980Z,39.70
2023-01-17T05:19:29.786Z,37.78
2023-01-17T05:19:52.654Z,39.22
2023-01-17T05:20:15.578Z,39.50
2023-01-17T05:20:38.511Z,40.88
2023-01-17T05:21:04.334Z,41.72
2023-01-17T05:21:30.720Z,36.15
2023-01-17T05:21:53.499Z,36.47
2023-01-17T05:22:16.342Z,38.90
2023-01-17T05:22:39.095Z,39.33
2023-01-17T05:23:01.856Z,39.42
2023-01-17T05:23:25.625Z,38.22
2023-01-17T05:23:48.580Z,35.60
2023-01-17T05:24:11.415Z,37.33
2023-01-17T05:24:34.174Z,40.40
2023-01-17T05:24:56.901Z,38.03
2023-01-17T05:25:19.659Z,37.50
2023-01-17T05:25:44.578Z,38.58
2023-01-17T05:26:07.461Z,39.53
2023-01-17T05:26:30.251Z,40.47
2023-01-17T05:26:55.028Z,41.35
2023-01-17T05:27:17.915Z,39.60
2023-01-17T05:27:40.647Z,40.45
2023-01-17T05:28:03.460Z,42.42
2023-01-17T05:28:26.340Z,39.53
2023-01-17T05:28:49.129Z,41.60
2023-01-17T05:29:11.895Z,39.90
2023-01-17T05:29:34.595Z,40.50
2023-01-17T05:29:57.338Z,41.28
2023-01-17T05:30:21.814Z,42.22
2023-01-17T05:30:44.625Z,40.90
2023-01-17T05:31:07.552Z,43.28
2023-01-17T05:31:30.614Z,42.53
2023-01-17T05:31:53.288Z,45.55
2023-01-17T05:32:18.645Z,43.97
2023-01-17T05:32:42.187Z,42.30
2023-01-17T05:33:06.483Z,39.92
2023-01-17T05:33:29.186Z,39.83
2023-01-17T05:33:51.910Z,38.20
2023-01-17T05:34:14.792Z,39.20
2023-01-17T05:34:38.719Z,41.83
2023-01-17T05:35:02.902Z,40.05
2023-01-17T05:35:27.005Z,38.80
2023-01-17T05:35:49.738Z,39.13
2023-01-17T05:36:12.536Z,40.13
2023-01-17T05:36:35.425Z,40.25
2023-01-17T05:36:58.225Z,39.67
2023-01-17T05:37:21.143Z,40.92
2023-01-17T05:37:49.178Z,41.25
2023-01-17T05:38:12.003Z,39.33
2023-01-17T05:38:35.937Z,39.42
2023-01-17T05:38:58.753Z,43.55
2023-01-17T05:39:21.670Z,41.72
2023-01-17T05:39:44.618Z,40.28
2023-01-17T05:40:10.873Z,41.15
2023-01-17T05:40:34.143Z,40.60
2023-01-17T05:40:59.009Z,42.22
2023-01-17T05:41:21.855Z,37.28
2023-01-17T05:41:44.842Z,37.72
2023-01-17T05:42:07.653Z,38.58
2023-01-17T05:42:30.373Z,38.25